Time;durP1;ratioP1;P1;durP2;ratioP2;P2;SDS_P1;SDS_P2;PMS_P1;PMS_P2;Temp;Humidity;BMP_temperature;BMP_pressure;BME280_temperature;BME280_humidity;BME280_pressure;Samples;Min_cycle;Max_cycle;Signal;HPM_P1;HPM_P2
2022/01/12 00:00:28;;;;;;;;;;;4.80;99.90;;;;;;5078539;28;19982;-52
2022/01/12 00:02:55;;;;;;;;;;;4.80;99.90;;;;;;5096837;28;19912;-49
2022/01/12 00:05:21;;;;;;;;;;;4.80;99.90;;;;;;5079900;28;19908;-49
2022/01/12 00:07:50;;;;;;;;;;;4.80;99.90;;;;;;5079801;28;20002;-46
2022/01/12 00:10:18;;;;;;;;;;;4.80;99.90;;;;;;5079315;28;19938;-47
2022/01/12 00:12:44;;;;;;;;;;;4.80;99.90;;;;;;5096747;28;20015;-47
2022/01/12 00:15:10;;;;;;;;;;;4.80;99.90;;;;;;5079067;28;19995;-50
2022/01/12 00:17:37;;;;;;;;;;;4.90;99.90;;;;;;5097291;28;19939;-47
2022/01/12 00:20:04;;;;;;;;;;;4.80;99.90;;;;;;5080277;28;19915;-46
2022/01/12 00:22:32;;;;;;;;;;;4.80;99.90;;;;;;5080363;28;19916;-48
2022/01/12 00:35:33;;;;;;;;;;;4.80;99.90;;;;;;5097884;28;20375;-47
2022/01/12 00:37:59;;;;;;;;;;;4.90;99.90;;;;;;5080153;28;20473;-47
2022/01/12 00:40:26;;;;;;;;;;;4.90;99.90;;;;;;5080111;28;20184;-48
2022/01/12 00:42:52;;;;;;;;;;;4.90;99.90;;;;;;5079778;28;19916;-48
2022/01/12 00:45:18;;;;;;;;;;;4.90;99.90;;;;;;5097844;28;20224;-49
2022/01/12 00:47:45;;;;;;;;;;;4.80;99.90;;;;;;5079254;28;19908;-47
2022/01/12 00:50:11;;;;;;;;;;;4.80;99.90;;;;;;5079704;28;19980;-47
2022/01/12 00:52:37;;;;;;;;;;;4.70;99.90;;;;;;5080498;28;19908;-52
2022/01/12 00:55:04;;;;;;;;;;;4.60;99.90;;;;;;5089071;28;19916;-51
2022/01/12 00:57:30;;;;;;;;;;;4.40;99.90;;;;;;5100213;28;19907;-45
2022/01/12 00:59:57;;;;;;;;;;;4.40;99.90;;;;;;5118398;28;19935;-46
2022/01/12 01:02:23;;;;;;;;;;;4.30;99.90;;;;;;5080128;28;19912;-48
2022/01/12 01:04:49;;;;;;;;;;;4.40;99.90;;;;;;5097803;28;20248;-46
2022/01/12 01:07:17;;;;;;;;;;;4.40;99.90;;;;;;5080433;28;20280;-49
2022/01/12 01:09:50;;;;;;;;;;;4.30;99.90;;;;;;5097548;28;19912;-48
2022/01/12 01:12:15;;;;;;;;;;;4.40;99.90;;;;;;5080478;28;20258;-46
2022/01/12 01:15:01;;;;;;;;;;;4.40;99.90;;;;;;5079350;28;19923;-46
2022/01/12 01:25:44;;;;;;;;;;;4.10;99.90;;;;;;5097059;28;19919;-50
2022/01/12 01:28:11;;;;;;;;;;;4.10;99.90;;;;;;5079119;28;19908;-47
2022/01/12 01:30:39;;;;;;;;;;;4.10;99.90;;;;;;5096195;28;19926;-46
2022/01/12 01:33:08;;;;;;;;;;;4.20;99.90;;;;;;5079062;28;19997;-49
2022/01/12 01:35:36;;;;;;;;;;;4.20;99.90;;;;;;5096659;28;19908;-50
2022/01/12 01:38:04;;;;;;;;;;;4.10;99.90;;;;;;5097287;28;20203;-50
2022/01/12 01:40:32;;;;;;;;;;;4.10;99.90;;;;;;5078601;28;20002;-47
2022/01/12 01:53:42;;;;;;;;;;;4.30;99.90;;;;;;5095837;28;19985;-48
2022/01/12 01:56:08;;;;;;;;;;;4.40;99.90;;;;;;5099424;28;20302;-50
2022/01/12 01:58:35;;;;;;;;;;;4.40;99.90;;;;;;5081831;28;19908;-48
2022/01/12 02:01:02;;;;;;;;;;;4.30;99.90;;;;;;5099959;28;20284;-46
2022/01/12 02:03:30;;;;;;;;;;;4.30;99.90;;;;;;5100337;28;19927;-46
2022/01/12 02:05:59;;;;;;;;;;;4.30;99.90;;;;;;5083560;28;19914;-47
2022/01/12 02:08:26;;;;;;;;;;;4.30;99.90;;;;;;5100588;28;20044;-49
2022/01/12 02:10:56;;;;;;;;;;;4.30;99.90;;;;;;5101128;28;19908;-47
2022/01/12 02:13:23;;;;;;;;;;;4.30;99.90;;;;;;5082538;28;19977;-46
2022/01/12 02:15:51;;;;;;;;;;;4.30;99.90;;;;;;5082823;28;19912;-46
2022/01/12 02:18:22;;;;;;;;;;;4.20;99.90;;;;;;5083651;28;19916;-46
2022/01/12 02:40:23;;;;;;;;;;;4.30;99.90;;;;;;5099794;28;19920;-47
2022/01/12 02:43:02;;;;;;;;;;;4.30;99.90;;;;;;5082429;28;19908;-46
2022/01/12 02:51:09;;;;;;;;;;;4.30;99.90;;;;;;5100233;28;20008;-47
2022/01/12 02:53:41;;;;;;;;;;;4.30;99.90;;;;;;5081606;28;19916;-46
2022/01/12 02:56:10;;;;;;;;;;;4.30;99.90;;;;;;5082128;28;19958;-50
2022/01/12 02:58:36;;;;;;;;;;;4.30;99.90;;;;;;5081337;28;19912;-50
2022/01/12 03:01:25;;;;;;;;;;;4.30;99.90;;;;;;5099836;28;20180;-50
2022/01/12 03:03:52;;;;;;;;;;;4.30;99.90;;;;;;5099670;28;19918;-45
2022/01/12 03:06:22;;;;;;;;;;;4.30;99.90;;;;;;5081909;28;19917;-46
2022/01/12 03:08:49;;;;;;;;;;;4.20;99.90;;;;;;5081838;28;19927;-49
2022/01/12 03:11:16;;;;;;;;;;;4.20;99.90;;;;;;5082211;28;20256;-47
2022/01/12 03:13:42;;;;;;;;;;;4.20;99.90;;;;;;5099355;28;20014;-48
2022/01/12 03:18:38;;;;;;;;;;;4.20;99.90;;;;;;5099775;28;19915;-46
2022/01/12 03:21:04;;;;;;;;;;;4.20;99.90;;;;;;5080921;28;19916;-45
2022/01/12 03:23:31;;;;;;;;;;;4.30;99.90;;;;;;5081812;28;20011;-47
2022/01/12 03:25:57;;;;;;;;;;;4.30;99.90;;;;;;5097755;28;19919;-47
2022/01/12 03:28:23;;;;;;;;;;;4.30;99.90;;;;;;5080687;28;19912;-48
2022/01/12 03:31:08;;;;;;;;;;;4.20;99.90;;;;;;5092520;28;19908;-46
2022/01/12 04:09:31;;;;;;;;;;;4.10;99.90;;;;;;5096420;28;20196;-48
2022/01/12 04:11:58;;;;;;;;;;;4.00;99.90;;;;;;5096008;28;19961;-48
2022/01/12 04:14:24;;;;;;;;;;;4.00;99.90;;;;;;5094004;28;19919;-48
2022/01/12 04:16:51;;;;;;;;;;;4.00;99.90;;;;;;5096094;28;19908;-45
2022/01/12 04:19:18;;;;;;;;;;;4.00;99.90;;;;;;5095681;28;19908;-52
2022/01/12 04:21:48;;;;;;;;;;;4.10;99.90;;;;;;5098248;28;19923;-49
2022/01/12 04:24:15;;;;;;;;;;;4.00;99.90;;;;;;5098348;28;19908;-50
2022/01/12 04:26:41;;;;;;;;;;;4.10;99.90;;;;;;5096939;28;19915;-49
2022/01/12 04:29:08;;;;;;;;;;;4.10;99.90;;;;;;5096661;28;19914;-45
2022/01/12 04:31:36;;;;;;;;;;;4.10;99.90;;;;;;5083029;28;20311;-50
2022/01/12 04:34:02;;;;;;;;;;;4.10;99.90;;;;;;5062449;28;19924;-48
2022/01/12 04:36:27;;;;;;;;;;;4.20;99.90;;;;;;5079109;28;20461;-48
2022/01/12 04:38:54;;;;;;;;;;;4.20;99.90;;;;;;5096366;28;19919;-46
2022/01/12 04:55:45;;;;;;;;;;;4.00;99.90;;;;;;5122268;27;20291;-46
2022/01/12 04:58:10;;;;;;;;;;;4.00;99.90;;;;;;5129080;27;19985;-48
2022/01/12 05:00:36;;;;;;;;;;;4.00;99.90;;;;;;5118801;27;19911;-45
2022/01/12 05:13:42;;;;;;;;;;;4.10;99.90;;;;;;5131655;27;20371;-48
2022/01/12 05:16:10;;;;;;;;;;;4.10;99.90;;;;;;5131180;27;19908;-48
2022/01/12 05:18:36;;;;;;;;;;;4.20;99.90;;;;;;5131393;27;19923;-48
2022/01/12 05:21:02;;;;;;;;;;;4.10;99.90;;;;;;5133106;27;19904;-46
2022/01/12 05:23:27;;;;;;;;;;;4.10;99.90;;;;;;5132292;27;19915;-47
2022/01/12 05:25:53;;;;;;;;;;;4.10;99.90;;;;;;5133040;27;19926;-48
2022/01/12 05:28:19;;;;;;;;;;;4.20;99.90;;;;;;5131120;27;20308;-46
2022/01/12 05:30:45;;;;;;;;;;;4.10;99.90;;;;;;5131860;27;20010;-50
2022/01/12 05:33:11;;;;;;;;;;;4.20;99.90;;;;;;5132959;27;19976;-48
2022/01/12 05:35:36;;;;;;;;;;;4.20;99.90;;;;;;5131855;28;19943;-48
2022/01/12 05:38:03;;;;;;;;;;;4.20;99.90;;;;;;5131543;28;19907;-48
2022/01/12 05:40:29;;;;;;;;;;;4.20;99.90;;;;;;5132401;28;20003;-48
2022/01/12 05:42:56;;;;;;;;;;;4.20;99.90;;;;;;5130363;28;20197;-48
2022/01/12 05:45:22;;;;;;;;;;;4.20;99.90;;;;;;5130692;28;19908;-47
2022/01/12 05:50:15;;;;;;;;;;;4.30;99.90;;;;;;5128118;27;20002;-50
2022/01/12 05:55:43;;;;;;;;;;;4.20;99.90;;;;;;5133948;27;19925;-49
2022/01/12 05:58:09;;;;;;;;;;;4.20;99.90;;;;;;5153450;27;19906;-47
2022/01/12 06:00:59;;;;;;;;;;;4.30;99.90;;;;;;5170143;27;19910;-47
2022/01/12 06:03:53;;;;;;;;;;;4.20;99.90;;;;;;5151623;27;20236;-46
2022/01/12 06:09:22;;;;;;;;;;;4.20;99.90;;;;;;5171615;27;20198;-45
2022/01/12 06:11:48;;;;;;;;;;;4.30;99.90;;;;;;5154737;27;20194;-45
2022/01/12 06:14:18;;;;;;;;;;;4.30;99.90;;;;;;5171829;27;19911;-46
2022/01/12 06:16:43;;;;;;;;;;;4.30;99.90;;;;;;5154056;27;19914;-46
2022/01/12 06:19:09;;;;;;;;;;;4.30;99.90;;;;;;5155864;27;19907;-45
2022/01/12 06:21:34;;;;;;;;;;;4.30;99.90;;;;;;5155781;27;20070;-48
2022/01/12 06:24:00;;;;;;;;;;;4.30;99.90;;;;;;5154693;27;19917;-50
2022/01/12 06:26:26;;;;;;;;;;;4.30;99.90;;;;;;5172617;27;19942;-48
2022/01/12 06:31:37;;;;;;;;;;;4.30;99.90;;;;;;5172397;27;20033;-45
2022/01/12 06:34:02;;;;;;;;;;;4.30;99.90;;;;;;5172245;27;20206;-45
2022/01/12 06:36:28;;;;;;;;;;;4.30;99.90;;;;;;5153849;27;19906;-46
2022/01/12 06:38:53;;;;;;;;;;;4.30;99.90;;;;;;5171173;27;19914;-45
2022/01/12 06:41:19;;;;;;;;;;;4.30;99.90;;;;;;5153913;27;19933;-46
2022/01/12 06:43:45;;;;;;;;;;;4.40;99.90;;;;;;5154486;27;19975;-46
2022/01/12 06:46:11;;;;;;;;;;;4.40;99.90;;;;;;5174792;27;19996;-49
2022/01/12 06:48:37;;;;;;;;;;;4.40;99.90;;;;;;5153218;27;19945;-46
2022/01/12 06:51:03;;;;;;;;;;;4.40;99.90;;;;;;5152025;27;20115;-46
2022/01/12 06:53:29;;;;;;;;;;;4.40;99.90;;;;;;5152326;27;20372;-46
2022/01/12 06:55:54;;;;;;;;;;;4.40;99.90;;;;;;5145139;27;20291;-47
2022/01/12 06:58:23;;;;;;;;;;;4.40;99.90;;;;;;5123912;27;19916;-46
2022/01/12 07:01:13;;;;;;;;;;;4.40;99.90;;;;;;5111652;28;20024;-45
2022/01/12 07:06:41;;;;;;;;;;;4.40;99.90;;;;;;5114157;28;19958;-46
2022/01/12 07:09:07;;;;;;;;;;;4.40;99.90;;;;;;5114396;27;20087;-45
2022/01/12 07:11:32;;;;;;;;;;;4.40;99.90;;;;;;5112615;28;19908;-49
2022/01/12 07:13:57;;;;;;;;;;;4.50;99.90;;;;;;5109666;28;19916;-45
2022/01/12 07:16:23;;;;;;;;;;;4.50;99.90;;;;;;5109317;28;19969;-45
2022/01/12 07:18:49;;;;;;;;;;;4.50;99.90;;;;;;5109957;28;19908;-46
2022/01/12 07:21:14;;;;;;;;;;;4.50;99.90;;;;;;5112250;28;19918;-45
2022/01/12 07:23:40;;;;;;;;;;;4.60;99.90;;;;;;5112109;28;20288;-48
2022/01/12 07:26:06;;;;;;;;;;;4.60;99.90;;;;;;5092609;28;19943;-45
2022/01/12 07:28:32;;;;;;;;;;;4.60;99.90;;;;;;5117723;27;19907;-46
2022/01/12 07:30:57;;;;;;;;;;;4.60;99.90;;;;;;5131931;27;20126;-45
2022/01/12 07:33:25;;;;;;;;;;;4.60;99.90;;;;;;5132750;27;19920;-46
2022/01/12 07:35:51;;;;;;;;;;;4.60;99.90;;;;;;5131131;27;20414;-51
2022/01/12 07:38:16;;;;;;;;;;;4.60;99.90;;;;;;5130711;27;19965;-48
2022/01/12 07:40:51;;;;;;;;;;;4.70;99.90;;;;;;5131160;27;19908;-47
2022/01/12 07:43:19;;;;;;;;;;;4.70;99.90;;;;;;5131763;27;20192;-46
2022/01/12 07:46:22;;;;;;;;;;;4.70;99.90;;;;;;5132173;27;19907;-45
2022/01/12 07:48:53;;;;;;;;;;;4.70;99.90;;;;;;5132433;27;19907;-45
2022/01/12 07:51:37;;;;;;;;;;;4.70;99.90;;;;;;5132686;27;19908;-49
2022/01/12 07:54:24;;;;;;;;;;;4.70;99.90;;;;;;5131967;27;19916;-46
2022/01/12 08:03:08;;;;;;;;;;;4.70;99.90;;;;;;5110782;27;20237;-49
2022/01/12 08:05:34;;;;;;;;;;;4.70;99.90;;;;;;5110930;27;19998;-48
2022/01/12 08:08:00;;;;;;;;;;;4.70;99.90;;;;;;5131179;27;19960;-45
2022/01/12 08:10:26;;;;;;;;;;;4.70;99.90;;;;;;5129624;27;19972;-51
2022/01/12 08:12:51;;;;;;;;;;;4.70;99.90;;;;;;5128799;27;19915;-47
2022/01/12 08:15:17;;;;;;;;;;;4.70;99.90;;;;;;5129101;27;19956;-52
2022/01/12 08:18:00;;;;;;;;;;;4.70;99.90;;;;;;5127651;27;19995;-53
2022/01/12 08:20:35;;;;;;;;;;;4.80;99.90;;;;;;5134667;27;20098;-53
2022/01/12 08:23:00;;;;;;;;;;;4.80;99.90;;;;;;5131919;27;19919;-47
2022/01/12 08:25:39;;;;;;;;;;;4.70;99.90;;;;;;5132600;27;19915;-45
2022/01/12 08:28:05;;;;;;;;;;;4.70;99.90;;;;;;5131195;27;20446;-48
2022/01/12 08:30:33;;;;;;;;;;;4.80;99.90;;;;;;5132771;27;20015;-49
2022/01/12 08:32:59;;;;;;;;;;;4.80;99.90;;;;;;5117408;27;19915;-49
2022/01/12 08:35:24;;;;;;;;;;;4.80;99.90;;;;;;5131759;27;19919;-47
2022/01/12 08:37:50;;;;;;;;;;;4.80;99.90;;;;;;5132250;27;20031;-50
2022/01/12 08:40:16;;;;;;;;;;;4.80;99.90;;;;;;5130375;27;20063;-48
2022/01/12 08:42:42;;;;;;;;;;;4.70;99.90;;;;;;5129438;27;20099;-47
2022/01/12 08:45:08;;;;;;;;;;;4.80;99.90;;;;;;5130087;27;20048;-47
2022/01/12 08:47:40;;;;;;;;;;;4.80;99.90;;;;;;5129456;27;19916;-47
2022/01/12 08:53:08;;;;;;;;;;;4.80;99.90;;;;;;5113940;28;19973;-45
2022/01/12 08:55:34;;;;;;;;;;;4.80;99.90;;;;;;5107689;28;20170;-46
2022/01/12 08:57:59;;;;;;;;;;;4.80;99.90;;;;;;5110105;27;19919;-47
2022/01/12 09:00:25;;;;;;;;;;;4.80;99.90;;;;;;5109956;28;19947;-47
2022/01/12 09:02:51;;;;;;;;;;;4.90;99.90;;;;;;5108592;28;20154;-48
2022/01/12 09:05:16;;;;;;;;;;;4.90;99.90;;;;;;5109706;28;19974;-46
2022/01/12 09:07:42;;;;;;;;;;;4.90;99.90;;;;;;5109488;28;19955;-45
2022/01/12 09:10:08;;;;;;;;;;;4.90;99.90;;;;;;5110223;28;19915;-46
2022/01/12 09:12:36;;;;;;;;;;;4.90;99.90;;;;;;5109415;28;19908;-46
2022/01/12 09:15:02;;;;;;;;;;;5.00;99.90;;;;;;5109076;28;19959;-46
2022/01/12 09:17:28;;;;;;;;;;;5.00;99.90;;;;;;5107475;28;19912;-47
2022/01/12 09:19:53;;;;;;;;;;;5.00;99.90;;;;;;5106383;28;19908;-45
2022/01/12 09:22:19;;;;;;;;;;;5.00;99.90;;;;;;5106851;28;20118;-46
2022/01/12 09:24:46;;;;;;;;;;;5.00;99.90;;;;;;5110268;28;20018;-46
2022/01/12 09:27:12;;;;;;;;;;;5.10;99.90;;;;;;5109349;28;20006;-45
2022/01/12 09:29:37;;;;;;;;;;;5.10;99.90;;;;;;5107106;28;20250;-46
2022/01/12 09:32:03;;;;;;;36.60;18.53;;;5.10;99.90;;;;;;5105306;28;20779;-46
2022/01/12 09:34:29;;;;;;;35.90;19.58;;;5.10;99.90;;;;;;5104819;28;20479;-47
2022/01/12 09:36:54;;;;;;;39.17;20.73;;;5.10;99.90;;;;;;5105629;28;20893;-46
2022/01/12 09:39:20;;;;;;;38.75;20.98;;;5.10;99.90;;;;;;5106597;28;20372;-48
2022/01/12 09:41:45;;;;;;;39.53;20.70;;;5.10;99.90;;;;;;5104961;28;20455;-47
2022/01/12 09:44:12;;;;;;;34.63;19.67;;;5.10;99.90;;;;;;5107014;28;20837;-46
2022/01/12 09:46:38;;;;;;;33.05;18.70;;;5.10;99.90;;;;;;5107040;28;20372;-46
2022/01/12 09:49:06;;;;;;;32.83;18.73;;;5.10;99.90;;;;;;5107313;28;20673;-48
2022/01/12 09:51:32;;;;;;;30.48;18.15;;;5.10;99.90;;;;;;5123219;28;20462;-49
2022/01/12 09:53:58;;;;;;;29.65;17.55;;;5.10;99.90;;;;;;5121864;27;20465;-45
2022/01/12 09:56:29;;;;;;;28.85;17.33;;;5.10;99.90;;;;;;5110035;28;20452;-51
2022/01/12 09:58:58;;;;;;;31.63;18.70;;;5.10;99.90;;;;;;5110201;27;20412;-45
2022/01/12 10:01:33;;;;;;;30.07;17.00;;;5.00;99.90;;;;;;5110120;28;20384;-46
2022/01/12 10:04:21;;;;;;;30.15;16.58;;;5.10;99.90;;;;;;5109270;28;20411;-46
2022/01/12 10:06:50;;;;;;;35.15;19.15;;;5.00;99.90;;;;;;5110244;28;20382;-49
2022/01/12 10:09:16;;;;;;;34.35;19.23;;;5.00;99.90;;;;;;5112623;28;21011;-49
2022/01/12 10:11:56;;;;;;;37.28;19.83;;;5.10;99.90;;;;;;5111017;28;20934;-49
2022/01/12 10:14:23;;;;;;;36.05;19.13;;;5.20;99.90;;;;;;5112387;28;20801;-47
2022/01/12 10:16:54;;;;;;;35.30;20.43;;;5.30;99.90;;;;;;5113296;28;20404;-46
2022/01/12 10:19:29;;;;;;;36.38;18.65;;;5.30;99.90;;;;;;5114958;28;20392;-51
2022/01/12 10:21:55;;;;;;;34.08;19.15;;;5.30;99.90;;;;;;5115361;28;20399;-50
2022/01/12 10:24:22;;;;;;;31.45;18.17;;;5.30;99.90;;;;;;5113680;28;20471;-48
2022/01/12 10:26:48;;;;;;;33.35;19.23;;;5.30;99.90;;;;;;5114036;28;20384;-49
2022/01/12 10:29:27;;;;;;;29.20;16.70;;;5.30;99.90;;;;;;5115067;28;20801;-46
2022/01/12 10:31:54;;;;;;;31.40;18.02;;;5.30;99.90;;;;;;5116984;28;20968;-50
2022/01/12 10:34:22;;;;;;;32.20;18.10;;;5.20;99.90;;;;;;5115053;28;20572;-48
2022/01/12 10:36:51;;;;;;;29.30;17.42;;;5.30;99.90;;;;;;5115069;28;20993;-52
2022/01/12 10:39:21;;;;;;;34.05;17.65;;;5.30;99.90;;;;;;5099082;28;20384;-52
2022/01/12 10:42:05;;;;;;;28.88;17.90;;;5.30;99.90;;;;;;5114930;28;20491;-52
2022/01/12 10:44:33;;;;;;;30.85;17.85;;;5.30;99.90;;;;;;5112111;28;20460;-48
2022/01/12 10:47:11;;;;;;;31.27;17.05;;;5.30;99.90;;;;;;5112811;28;20380;-46
2022/01/12 10:49:39;;;;;;;28.88;16.10;;;5.40;99.90;;;;;;5110944;28;20399;-45
2022/01/12 10:52:11;;;;;;;28.75;14.88;;;5.40;99.90;;;;;;5111996;28;20387;-46
2022/01/12 10:54:51;;;;;;;27.30;15.25;;;5.40;99.90;;;;;;5112087;28;20392;-46
2022/01/12 10:57:26;;;;;;;30.08;16.17;;;5.40;99.90;;;;;;5109279;27;20409;-45
2022/01/12 11:00:10;;;;;;;29.02;14.90;;;5.40;99.90;;;;;;5108444;28;20453;-49
2022/01/12 11:02:38;;;;;;;30.65;16.55;;;5.40;99.90;;;;;;5109296;28;20388;-51
2022/01/12 11:05:06;;;;;;;27.45;14.82;;;5.40;99.90;;;;;;5110172;28;20427;-44
2022/01/12 11:07:32;;;;;;;26.58;14.25;;;5.40;99.90;;;;;;5109024;28;20465;-46
2022/01/12 11:10:00;;;;;;;31.90;13.95;;;5.50;99.90;;;;;;5106292;28;20479;-46
2022/01/12 11:12:27;;;;;;;26.67;12.68;;;5.50;99.90;;;;;;5108768;28;20465;-46
2022/01/12 11:14:53;;;;;;;28.63;13.13;;;5.50;99.90;;;;;;5108835;28;20481;-45
2022/01/12 11:17:19;;;;;;;23.40;11.53;;;5.50;99.90;;;;;;5109286;28;20454;-47
2022/01/12 11:20:25;;;;;;;29.45;13.70;;;5.60;99.90;;;;;;5109004;28;20658;-47
2022/01/12 11:23:07;;;;;;;31.58;14.10;;;5.60;99.90;;;;;;5109829;28;20408;-47
2022/01/12 11:25:39;;;;;;;29.65;14.30;;;5.60;99.90;;;;;;5110299;28;20822;-48
2022/01/12 11:28:25;;;;;;;31.38;14.57;;;5.70;99.90;;;;;;5111126;28;20510;-47
2022/01/12 11:30:50;;;;;;;31.90;14.40;;;5.70;99.90;;;;;;5111567;28;20387;-48
2022/01/12 11:33:19;;;;;;;20.93;11.50;;;5.70;99.90;;;;;;5110698;28;20392;-48
2022/01/12 11:35:50;;;;;;;22.10;11.80;;;5.80;99.90;;;;;;5110989;28;20372;-46
2022/01/12 11:38:25;;;;;;;26.13;12.38;;;6.00;99.90;;;;;;5111827;27;20656;-50
2022/01/12 11:40:54;;;;;;;24.80;11.25;;;6.00;99.90;;;;;;5110194;28;20402;-45
2022/01/12 11:43:29;;;;;;;24.27;11.63;;;6.10;99.90;;;;;;5109616;28;20380;-51
2022/01/12 11:46:01;;;;;;;27.27;12.18;;;6.10;99.90;;;;;;5111606;28;20372;-46
2022/01/12 11:48:40;;;;;;;28.33;11.75;;;6.10;99.90;;;;;;5111077;28;20390;-45
2022/01/12 11:51:06;;;;;;;25.67;12.30;;;6.20;99.90;;;;;;5109792;28;20376;-47
2022/01/12 11:53:42;;;;;;;27.03;13.23;;;6.40;99.90;;;;;;5110095;28;20404;-48
2022/01/12 11:56:19;;;;;;;22.77;12.85;;;6.50;99.90;;;;;;5110799;28;20495;-46
2022/01/12 11:58:59;;;;;;;26.30;13.98;;;6.50;99.90;;;;;;5109790;28;20413;-49
2022/01/12 12:01:55;;;;;;;27.08;14.60;;;6.60;99.90;;;;;;5107767;28;20415;-50
2022/01/12 12:04:26;;;;;;;24.95;13.73;;;6.70;99.90;;;;;;5095240;28;20534;-45
2022/01/12 12:07:11;;;;;;;24.85;12.50;;;6.90;99.90;;;;;;5104663;28;20376;-51
2022/01/12 12:09:50;;;;;;;27.20;12.48;;;7.00;99.90;;;;;;5107691;28;21018;-49
2022/01/12 12:12:20;;;;;;;27.15;13.50;;;7.30;99.90;;;;;;5109418;28;20541;-45
2022/01/12 12:14:53;;;;;;;26.90;12.70;;;7.10;99.90;;;;;;5108435;28;20400;-46
2022/01/12 12:17:21;;;;;;;23.85;12.68;;;7.20;99.90;;;;;;5106545;28;20653;-45
2022/01/12 12:19:47;;;;;;;28.50;13.77;;;7.10;99.90;;;;;;5107292;28;20376;-48
2022/01/12 12:22:18;;;;;;;25.95;13.43;;;7.00;99.90;;;;;;5107253;28;20383;-46
2022/01/12 12:24:51;;;;;;;29.35;13.40;;;6.90;99.90;;;;;;5107340;28;20694;-47
2022/01/12 12:27:19;;;;;;;29.83;14.32;;;6.90;99.90;;;;;;5106883;28;20475;-47
2022/01/12 12:29:48;;;;;;;28.15;12.55;;;7.20;99.90;;;;;;5108233;28;20444;-46
2022/01/12 12:32:15;;;;;;;28.27;12.88;;;7.30;99.90;;;;;;5106530;28;20388;-48
2022/01/12 12:34:43;;;;;;;21.63;12.02;;;7.50;99.90;;;;;;5105542;28;20830;-46
2022/01/12 12:37:13;;;;;;;25.58;12.82;;;7.80;99.90;;;;;;5107459;28;20465;-47
2022/01/12 12:39:42;;;;;;;26.73;11.65;;;7.80;99.90;;;;;;5108271;28;20430;-46
2022/01/12 12:42:15;;;;;;;;;;;7.60;99.90;;;;;;5109658;28;20024;-48
2022/01/12 12:44:40;;;;;;;;;;;7.40;99.90;;;;;;5110466;28;20302;-46
2022/01/12 12:47:13;;;;;;;;;;;7.30;99.90;;;;;;5109815;28;19908;-48
2022/01/12 12:49:45;;;;;;;;;;;7.10;99.90;;;;;;5109658;28;19903;-46
2022/01/12 12:52:11;;;;;;;;;;;7.10;99.90;;;;;;5112830;28;19960;-52
2022/01/12 12:54:42;;;;;;;;;;;7.00;99.90;;;;;;5112921;28;19912;-52
2022/01/12 12:57:09;;;;;;;;;;;6.90;99.90;;;;;;5112941;27;19969;-54
2022/01/12 12:59:36;;;;;;;;;;;6.80;99.90;;;;;;5114734;28;19990;-47
2022/01/12 13:02:12;;;;;;;;;;;6.80;99.90;;;;;;5115351;28;20399;-46
2022/01/12 13:04:37;;;;;;;;;;;6.70;99.90;;;;;;5113213;28;19912;-49
2022/01/12 13:07:13;;;;;;;;;;;6.70;99.90;;;;;;5113964;28;19910;-48
2022/01/12 13:09:38;;;;;;;;;;;6.70;99.90;;;;;;5114387;28;19917;-47
2022/01/12 13:12:04;;;;;;;;;;;6.70;99.90;;;;;;5113649;28;20023;-46
2022/01/12 13:14:40;;;;;;;;;;;6.70;99.90;;;;;;5112358;28;19943;-50
2022/01/12 13:17:05;;;;;;;;;;;6.80;99.90;;;;;;5111268;28;19904;-48
2022/01/12 13:22:30;;;;;;;;;;;6.90;99.90;;;;;;5113992;28;20282;-48
2022/01/12 13:24:57;;;;;;;;;;;7.00;99.90;;;;;;5114181;28;20268;-49
2022/01/12 13:27:24;;;;;;;;;;;7.00;99.90;;;;;;5112165;28;19904;-47
2022/01/12 13:29:51;;;;;;;;;;;7.00;99.90;;;;;;5113244;28;19914;-47
2022/01/12 13:32:17;;;;;;;;;;;7.00;99.90;;;;;;5111030;28;20059;-48
2022/01/12 13:34:53;;;;;;;;;;;7.00;99.90;;;;;;5112034;28;19908;-49
2022/01/12 13:37:18;;;;;;;;;;;6.90;99.90;;;;;;5112310;28;19985;-49
2022/01/12 13:39:44;;;;;;;;;;;7.00;99.90;;;;;;5110023;28;19927;-48
2022/01/12 13:42:09;;;;;;;;;;;7.00;99.90;;;;;;5111695;28;19965;-48
2022/01/12 13:44:35;;;;;;;;;;;6.90;99.90;;;;;;5112441;28;19912;-51
2022/01/12 13:47:22;;;;;;;;;;;6.90;99.90;;;;;;5109134;28;19903;-51
2022/01/12 13:49:48;;;;;;;;;;;6.90;99.90;;;;;;5108236;28;19908;-52
2022/01/12 13:52:13;;;;;;;;;;;6.90;99.90;;;;;;5113034;28;19976;-48
2022/01/12 13:54:40;;;;;;;;;;;6.90;99.90;;;;;;5111619;28;19972;-48
2022/01/12 13:57:06;;;;;;;;;;;6.90;99.90;;;;;;5113193;27;19919;-48
2022/01/12 13:59:42;;;;;;;;;;;6.90;99.90;;;;;;5111933;28;19939;-51
2022/01/12 14:02:12;;;;;;;;;;;6.90;99.90;;;;;;5130055;27;19903;-48
2022/01/12 14:04:42;;;;;;;;;;;6.90;99.90;;;;;;5112044;28;19914;-47
2022/01/12 14:07:10;;;;;;;;;;;6.80;99.90;;;;;;5129271;27;19907;-45
2022/01/12 14:09:40;;;;;;;;;;;6.80;99.90;;;;;;5128822;27;20487;-45
2022/01/12 14:12:08;;;;;;;;;;;6.80;99.90;;;;;;5113810;28;19904;-47
2022/01/12 14:14:44;;;;;;;;;;;6.80;99.90;;;;;;5115572;28;20508;-46
2022/01/12 14:17:20;;;;;;;;;;;6.70;99.90;;;;;;5114866;28;20207;-46
2022/01/12 14:19:59;;;;;;;;;;;6.70;99.90;;;;;;5114613;28;19903;-50
2022/01/12 14:22:25;;;;;;;;;;;6.70;99.90;;;;;;5114776;28;19910;-52
2022/01/12 14:25:02;;;;;;;;;;;6.70;99.90;;;;;;5114960;28;19920;-50
2022/01/12 14:27:41;;;;;;;;;;;6.70;99.90;;;;;;5115618;28;20181;-47
2022/01/12 14:30:08;;;;;;;;;;;6.70;99.90;;;;;;5112215;28;20105;-46
2022/01/12 14:32:36;;;;;;;;;;;6.60;99.90;;;;;;5111336;28;19904;-47
2022/01/12 14:35:07;;;;;;;;;;;6.60;99.90;;;;;;5112466;28;20016;-49
2022/01/12 14:37:32;;;;;;;;;;;6.60;99.90;;;;;;5111611;28;20260;-52
2022/01/12 14:39:58;;;;;;;;;;;6.70;99.90;;;;;;5115100;28;19918;-49
2022/01/12 14:42:24;;;;;;;;;;;6.70;99.90;;;;;;5115216;28;19990;-50
2022/01/12 14:44:49;;;;;;;;;;;6.60;99.90;;;;;;5115415;27;19910;-52
2022/01/12 14:47:15;;;;;;;;;;;6.60;99.90;;;;;;5116543;28;19991;-48
2022/01/12 14:49:41;;;;;;;;;;;6.60;99.90;;;;;;5113443;28;19911;-49
2022/01/12 14:52:06;;;;;;;;;;;6.60;99.90;;;;;;5113675;28;19904;-46
2022/01/12 14:54:32;;;;;;;;;;;6.60;99.90;;;;;;5111997;28;19908;-50
2022/01/12 14:56:57;;;;;;;;;;;6.70;99.90;;;;;;5112841;27;20156;-46
2022/01/12 14:59:23;;;;;;;;;;;6.70;99.90;;;;;;5113227;28;20062;-48
2022/01/12 15:01:48;;;;;;;;;;;6.70;99.90;;;;;;5112803;28;19904;-48
2022/01/12 15:04:14;;;;;;;;;;;6.60;99.90;;;;;;5112375;28;19910;-48
2022/01/12 15:06:39;;;;;;;;;;;6.60;99.90;;;;;;5112990;28;19903;-53
2022/01/12 15:09:04;;;;;;;;;;;6.60;99.90;;;;;;5113615;28;19982;-51
2022/01/12 15:11:32;;;;;;;;;;;6.60;99.90;;;;;;5112711;28;19923;-52
2022/01/12 15:14:10;;;;;;;;;;;6.60;99.90;;;;;;5111241;28;19912;-54
2022/01/12 15:16:36;;;;;;;;;;;6.50;99.90;;;;;;5113526;28;20490;-48
2022/01/12 15:19:01;;;;;;;;;;;6.50;99.90;;;;;;5113607;28;19903;-50
2022/01/12 15:21:27;;;;;;;;;;;6.50;99.90;;;;;;5109387;28;19912;-48
2022/01/12 15:23:52;;;;;;;;;;;6.50;99.90;;;;;;5108015;28;19931;-50
2022/01/12 15:26:18;;;;;;;;;;;6.50;99.90;;;;;;5106307;28;19911;-48
2022/01/12 15:28:43;;;;;;;;;;;6.50;99.90;;;;;;5106293;28;19911;-49
2022/01/12 15:31:08;;;;;;;;;;;6.50;99.90;;;;;;5105791;28;19930;-46
2022/01/12 15:33:34;;;;;;;;;;;6.50;99.90;;;;;;5106026;28;20186;-49
2022/01/12 15:36:00;;;;;;;;;;;6.40;99.90;;;;;;5104772;28;19994;-51
2022/01/12 15:38:25;;;;;;;;;;;6.40;99.90;;;;;;5105619;28;19980;-46
2022/01/12 15:40:51;;;;;;;;;;;6.40;99.90;;;;;;5106616;28;20466;-46
2022/01/12 15:43:16;;;;;;;;;;;6.30;99.90;;;;;;5107555;28;19930;-49
2022/01/12 15:45:41;;;;;;;;;;;6.30;99.90;;;;;;5107242;28;20317;-47
2022/01/12 15:48:12;;;;;;;;;;;6.30;99.90;;;;;;5106700;28;19926;-53
2022/01/12 15:50:37;;;;;;;;;;;6.30;99.90;;;;;;5108184;28;19908;-52
2022/01/12 15:53:03;;;;;;;;;;;6.30;99.90;;;;;;5106141;28;19915;-51
2022/01/12 15:55:29;;;;;;;;;;;6.20;99.90;;;;;;5104786;28;19926;-51
2022/01/12 15:57:55;;;;;;;;;;;6.30;99.90;;;;;;5105620;28;20099;-48
2022/01/12 16:00:20;;;;;;;;;;;6.20;99.90;;;;;;5105543;28;19903;-47
2022/01/12 16:02:46;;;;;;;;;;;6.20;99.90;;;;;;5107335;28;19904;-51
2022/01/12 16:05:11;;;;;;;;;;;6.30;99.90;;;;;;5106007;28;19938;-48
2022/01/12 16:07:37;;;;;;;;;;;6.30;99.90;;;;;;5105623;28;19908;-52
2022/01/12 16:10:02;;;;;;;;;;;6.40;99.90;;;;;;5107870;28;19912;-53
2022/01/12 16:12:28;;;;;;;;;;;6.40;99.90;;;;;;5126021;27;20207;-53
2022/01/12 16:14:54;;;;;;;;;;;6.60;99.90;;;;;;5108112;28;20285;-50
2022/01/12 16:17:22;;;;;;;;;;;6.60;99.90;;;;;;5114466;28;19904;-48
2022/01/12 16:19:50;;;;;;;;;;;6.50;99.90;;;;;;5113408;28;20535;-48
2022/01/12 16:22:17;;;;;;;;;;;6.40;99.90;;;;;;5112845;28;19946;-48
2022/01/12 16:24:43;;;;;;;;;;;6.40;99.90;;;;;;5112185;28;19904;-46
2022/01/12 16:27:10;;;;;;;;;;;6.30;99.90;;;;;;5113140;28;20333;-48
2022/01/12 16:29:38;;;;;;;;;;;6.20;99.90;;;;;;5113810;28;19903;-50
2022/01/12 16:32:04;;;;;;;;;;;6.20;99.90;;;;;;5113501;28;19967;-46
2022/01/12 16:34:31;;;;;;;;;;;6.20;99.90;;;;;;5112008;28;19994;-48